sensor_id;sensor_type;location;lat;lon;timestamp;P1;durP1;ratioP1;P2;durP2;ratioP2
22230;SDS011;11284;48.086;-1.652;2022-09-27T00:00:22;9.35;;;1.70;;
22230;SDS011;11284;48.086;-1.652;2022-09-27T00:02:48;8.90;;;1.90;;
22230;SDS011;11284;48.086;-1.652;2022-09-27T00:05:14;13.13;;;2.15;;
22230;SDS011;11284;48.086;-1.652;2022-09-27T00:07:40;13.23;;;2.42;;
22230;SDS011;11284;48.086;-1.652;2022-09-27T00:10:06;8.70;;;2.00;;
22230;SDS011;11284;48.086;-1.652;2022-09-27T00:12:33;11.38;;;2.30;;
22230;SDS011;11284;48.086;-1.652;2022-09-27T00:14:59;11.77;;;1.90;;
22230;SDS011;11284;48.086;-1.652;2022-09-27T00:17:26;11.32;;;2.30;;
22230;SDS011;11284;48.086;-1.652;2022-09-27T00:19:52;10.77;;;1.85;;
22230;SDS011;11284;48.086;-1.652;2022-09-27T00:22:20;6.18;;;1.50;;
22230;SDS011;11284;48.086;-1.652;2022-09-27T00:24:46;9.40;;;1.90;;
22230;SDS011;11284;48.086;-1.652;2022-09-27T00:27:12;10.88;;;1.98;;
22230;SDS011;11284;48.086;-1.652;2022-09-27T00:29:38;8.25;;;1.70;;
22230;SDS011;11284;48.086;-1.652;2022-09-27T00:32:04;10.98;;;2.08;;
22230;SDS011;11284;48.086;-1.652;2022-09-27T00:34:30;9.60;;;1.55;;
22230;SDS011;11284;48.086;-1.652;2022-09-27T00:36:56;8.80;;;1.88;;
22230;SDS011;11284;48.086;-1.652;2022-09-27T00:39:23;7.63;;;1.60;;
22230;SDS011;11284;48.086;-1.652;2022-09-27T00:41:49;11.15;;;1.90;;
22230;SDS011;11284;48.086;-1.652;2022-09-27T00:47:08;12.13;;;2.15;;
22230;SDS011;11284;48.086;-1.652;2022-09-27T00:49:43;9.25;;;2.00;;
22230;SDS011;11284;48.086;-1.652;2022-09-27T00:52:12;7.50;;;1.63;;
22230;SDS011;11284;48.086;-1.652;2022-09-27T00:54:41;8.40;;;1.50;;
22230;SDS011;11284;48.086;-1.652;2022-09-27T00:57:09;11.73;;;2.00;;
22230;SDS011;11284;48.086;-1.652;2022-09-27T00:59:39;8.57;;;2.05;;
22230;SDS011;11284;48.086;-1.652;2022-09-27T01:02:06;11.32;;;2.38;;
22230;SDS011;11284;48.086;-1.652;2022-09-27T01:04:32;11.68;;;1.95;;
22230;SDS011;11284;48.086;-1.652;2022-09-27T01:06:59;9.70;;;2.00;;
22230;SDS011;11284;48.086;-1.652;2022-09-27T01:09:25;8.57;;;1.85;;
22230;SDS011;11284;48.086;-1.652;2022-09-27T01:12:08;11.35;;;1.88;;
22230;SDS011;11284;48.086;-1.652;2022-09-27T01:31:00;9.55;;;1.98;;
22230;SDS011;11284;48.086;-1.652;2022-09-27T01:33:41;6.20;;;1.10;;
22230;SDS011;11284;48.086;-1.652;2022-09-27T01:36:16;8.60;;;1.27;;
22230;SDS011;11284;48.086;-1.652;2022-09-27T01:43:50;8.52;;;1.35;;
22230;SDS011;11284;48.086;-1.652;2022-09-27T01:46:21;9.02;;;1.60;;
22230;SDS011;11284;48.086;-1.652;2022-09-27T01:48:48;10.43;;;2.00;;
22230;SDS011;11284;48.086;-1.652;2022-09-27T01:51:16;9.25;;;1.70;;
22230;SDS011;11284;48.086;-1.652;2022-09-27T01:53:44;7.43;;;1.38;;
22230;SDS011;11284;48.086;-1.652;2022-09-27T01:56:33;8.63;;;1.70;;
22230;SDS011;11284;48.086;-1.652;2022-09-27T01:59:01;10.75;;;1.70;;
22230;SDS011;11284;48.086;-1.652;2022-09-27T02:01:28;8.18;;;1.95;;
22230;SDS011;11284;48.086;-1.652;2022-09-27T02:03:54;11.68;;;2.25;;
22230;SDS011;11284;48.086;-1.652;2022-09-27T02:06:33;10.80;;;2.42;;
22230;SDS011;11284;48.086;-1.652;2022-09-27T02:09:04;8.15;;;1.60;;
22230;SDS011;11284;48.086;-1.652;2022-09-27T02:11:31;8.32;;;1.50;;
22230;SDS011;11284;48.086;-1.652;2022-09-27T02:14:03;9.23;;;2.10;;
22230;SDS011;11284;48.086;-1.652;2022-09-27T02:21:43;8.98;;;1.80;;
22230;SDS011;11284;48.086;-1.652;2022-09-27T02:24:14;11.27;;;1.90;;
22230;SDS011;11284;48.086;-1.652;2022-09-27T02:26:44;8.90;;;1.80;;
22230;SDS011;11284;48.086;-1.652;2022-09-27T02:29:13;11.45;;;1.85;;
22230;SDS011;11284;48.086;-1.652;2022-09-27T02:31:41;11.90;;;2.00;;
22230;SDS011;11284;48.086;-1.652;2022-09-27T02:34:09;9.82;;;1.73;;
22230;SDS011;11284;48.086;-1.652;2022-09-27T02:36:36;7.57;;;1.40;;
22230;SDS011;11284;48.086;-1.652;2022-09-27T02:39:02;7.95;;;2.17;;
22230;SDS011;11284;48.086;-1.652;2022-09-27T02:41:29;9.55;;;1.85;;
22230;SDS011;11284;48.086;-1.652;2022-09-27T02:43:56;9.48;;;2.72;;
22230;SDS011;11284;48.086;-1.652;2022-09-27T02:51:32;8.93;;;1.98;;
22230;SDS011;11284;48.086;-1.652;2022-09-27T02:56:37;8.82;;;1.92;;
22230;SDS011;11284;48.086;-1.652;2022-09-27T03:01:37;8.40;;;1.55;;
22230;SDS011;11284;48.086;-1.652;2022-09-27T03:04:13;10.25;;;2.10;;
22230;SDS011;11284;48.086;-1.652;2022-09-27T03:06:41;7.90;;;1.70;;
22230;SDS011;11284;48.086;-1.652;2022-09-27T03:09:42;11.35;;;1.85;;
22230;SDS011;11284;48.086;-1.652;2022-09-27T03:12:00;10.93;;;1.80;;
22230;SDS011;11284;48.086;-1.652;2022-09-27T03:14:26;9.10;;;1.35;;
22230;SDS011;11284;48.086;-1.652;2022-09-27T03:16:52;9.57;;;1.80;;
22230;SDS011;11284;48.086;-1.652;2022-09-27T03:19:18;11.63;;;2.05;;
22230;SDS011;11284;48.086;-1.652;2022-09-27T03:21:44;14.20;;;2.00;;
22230;SDS011;11284;48.086;-1.652;2022-09-27T03:24:10;10.55;;;2.13;;
22230;SDS011;11284;48.086;-1.652;2022-09-27T03:26:36;12.27;;;2.00;;
22230;SDS011;11284;48.086;-1.652;2022-09-27T03:29:02;8.23;;;2.05;;
22230;SDS011;11284;48.086;-1.652;2022-09-27T03:31:28;10.50;;;1.60;;
22230;SDS011;11284;48.086;-1.652;2022-09-27T03:33:54;14.57;;;2.30;;
22230;SDS011;11284;48.086;-1.652;2022-09-27T03:36:20;9.73;;;1.60;;
22230;SDS011;11284;48.086;-1.652;2022-09-27T03:38:46;11.40;;;2.10;;
22230;SDS011;11284;48.086;-1.652;2022-09-27T03:41:12;10.38;;;1.88;;
22230;SDS011;11284;48.086;-1.652;2022-09-27T03:43:38;8.75;;;1.67;;
22230;SDS011;11284;48.086;-1.652;2022-09-27T03:46:04;9.57;;;1.90;;
22230;SDS011;11284;48.086;-1.652;2022-09-27T03:48:30;13.23;;;2.25;;
22230;SDS011;11284;48.086;-1.652;2022-09-27T03:50:56;8.40;;;1.70;;
22230;SDS011;11284;48.086;-1.652;2022-09-27T03:53:22;9.38;;;2.08;;
22230;SDS011;11284;48.086;-1.652;2022-09-27T03:55:48;7.25;;;1.63;;
22230;SDS011;11284;48.086;-1.652;2022-09-27T03:58:14;13.65;;;2.65;;
22230;SDS011;11284;48.086;-1.652;2022-09-27T04:00:40;9.68;;;2.00;;
22230;SDS011;11284;48.086;-1.652;2022-09-27T04:03:08;8.93;;;2.25;;
22230;SDS011;11284;48.086;-1.652;2022-09-27T04:05:35;10.95;;;2.33;;
22230;SDS011;11284;48.086;-1.652;2022-09-27T04:08:01;13.38;;;2.20;;
22230;SDS011;11284;48.086;-1.652;2022-09-27T04:10:27;7.75;;;1.83;;
22230;SDS011;11284;48.086;-1.652;2022-09-27T04:12:53;8.13;;;1.77;;
22230;SDS011;11284;48.086;-1.652;2022-09-27T04:15:19;10.45;;;1.92;;
22230;SDS011;11284;48.086;-1.652;2022-09-27T04:17:45;9.02;;;2.33;;
22230;SDS011;11284;48.086;-1.652;2022-09-27T04:20:11;10.00;;;1.77;;
22230;SDS011;11284;48.086;-1.652;2022-09-27T04:22:38;11.55;;;2.00;;
22230;SDS011;11284;48.086;-1.652;2022-09-27T04:25:05;12.18;;;2.83;;
22230;SDS011;11284;48.086;-1.652;2022-09-27T04:27:31;8.25;;;2.35;;
22230;SDS011;11284;48.086;-1.652;2022-09-27T04:29:57;14.57;;;1.98;;
22230;SDS011;11284;48.086;-1.652;2022-09-27T04:32:23;12.15;;;1.90;;
22230;SDS011;11284;48.086;-1.652;2022-09-27T04:34:49;8.98;;;2.10;;
22230;SDS011;11284;48.086;-1.652;2022-09-27T04:37:34;12.13;;;2.03;;
22230;SDS011;11284;48.086;-1.652;2022-09-27T04:40:01;13.75;;;2.88;;
22230;SDS011;11284;48.086;-1.652;2022-09-27T04:42:27;9.68;;;2.10;;
22230;SDS011;11284;48.086;-1.652;2022-09-27T04:44:54;11.25;;;2.13;;
22230;SDS011;11284;48.086;-1.652;2022-09-27T04:47:20;8.98;;;1.88;;
22230;SDS011;11284;48.086;-1.652;2022-09-27T04:49:46;11.90;;;2.55;;
22230;SDS011;11284;48.086;-1.652;2022-09-27T04:52:13;13.77;;;2.42;;
22230;SDS011;11284;48.086;-1.652;2022-09-27T04:54:39;12.05;;;2.25;;
22230;SDS011;11284;48.086;-1.652;2022-09-27T04:57:06;11.73;;;2.35;;
22230;SDS011;11284;48.086;-1.652;2022-09-27T04:59:32;14.00;;;3.42;;
22230;SDS011;11284;48.086;-1.652;2022-09-27T05:01:58;10.40;;;2.38;;
22230;SDS011;11284;48.086;-1.652;2022-09-27T05:04:25;11.27;;;2.40;;
22230;SDS011;11284;48.086;-1.652;2022-09-27T05:06:51;16.75;;;2.53;;
22230;SDS011;11284;48.086;-1.652;2022-09-27T05:09:17;12.77;;;2.42;;
22230;SDS011;11284;48.086;-1.652;2022-09-27T05:11:43;12.35;;;2.47;;
22230;SDS011;11284;48.086;-1.652;2022-09-27T05:14:09;14.73;;;2.60;;
22230;SDS011;11284;48.086;-1.652;2022-09-27T05:16:37;12.48;;;2.58;;
22230;SDS011;11284;48.086;-1.652;2022-09-27T05:19:03;9.43;;;2.17;;
22230;SDS011;11284;48.086;-1.652;2022-09-27T05:21:29;9.73;;;1.80;;
22230;SDS011;11284;48.086;-1.652;2022-09-27T05:23:56;11.25;;;2.08;;
22230;SDS011;11284;48.086;-1.652;2022-09-27T05:26:22;11.57;;;2.00;;
22230;SDS011;11284;48.086;-1.652;2022-09-27T05:28:48;11.52;;;2.28;;
22230;SDS011;11284;48.086;-1.652;2022-09-27T05:31:14;11.50;;;2.63;;
22230;SDS011;11284;48.086;-1.652;2022-09-27T05:33:40;9.15;;;1.70;;
22230;SDS011;11284;48.086;-1.652;2022-09-27T05:36:07;12.40;;;2.33;;
22230;SDS011;11284;48.086;-1.652;2022-09-27T05:38:33;13.07;;;2.42;;
22230;SDS011;11284;48.086;-1.652;2022-09-27T05:41:00;11.45;;;1.90;;
22230;SDS011;11284;48.086;-1.652;2022-09-27T05:43:27;13.60;;;2.63;;
22230;SDS011;11284;48.086;-1.652;2022-09-27T05:45:53;10.40;;;2.10;;
22230;SDS011;11284;48.086;-1.652;2022-09-27T05:48:19;9.50;;;1.63;;
22230;SDS011;11284;48.086;-1.652;2022-09-27T05:50:46;13.57;;;2.28;;
22230;SDS011;11284;48.086;-1.652;2022-09-27T05:53:12;11.48;;;2.50;;
22230;SDS011;11284;48.086;-1.652;2022-09-27T05:55:38;9.63;;;1.83;;
22230;SDS011;11284;48.086;-1.652;2022-09-27T05:58:05;10.30;;;1.77;;
22230;SDS011;11284;48.086;-1.652;2022-09-27T06:00:32;12.65;;;2.50;;
22230;SDS011;11284;48.086;-1.652;2022-09-27T06:02:59;16.00;;;4.53;;
22230;SDS011;11284;48.086;-1.652;2022-09-27T06:05:27;15.45;;;2.53;;
22230;SDS011;11284;48.086;-1.652;2022-09-27T06:07:57;10.95;;;1.90;;
22230;SDS011;11284;48.086;-1.652;2022-09-27T06:10:23;10.43;;;1.80;;
22230;SDS011;11284;48.086;-1.652;2022-09-27T06:12:49;10.07;;;2.85;;
22230;SDS011;11284;48.086;-1.652;2022-09-27T06:15:16;10.23;;;2.20;;
22230;SDS011;11284;48.086;-1.652;2022-09-27T06:17:42;8.07;;;2.08;;
22230;SDS011;11284;48.086;-1.652;2022-09-27T06:20:08;14.10;;;2.35;;
22230;SDS011;11284;48.086;-1.652;2022-09-27T06:22:34;10.75;;;1.95;;
22230;SDS011;11284;48.086;-1.652;2022-09-27T06:25:01;12.07;;;2.03;;
22230;SDS011;11284;48.086;-1.652;2022-09-27T06:27:28;11.95;;;2.47;;
22230;SDS011;11284;48.086;-1.652;2022-09-27T06:29:54;11.00;;;2.40;;
22230;SDS011;11284;48.086;-1.652;2022-09-27T06:32:20;11.88;;;2.42;;
22230;SDS011;11284;48.086;-1.652;2022-09-27T06:34:46;11.98;;;1.95;;
22230;SDS011;11284;48.086;-1.652;2022-09-27T06:37:12;11.90;;;2.90;;
22230;SDS011;11284;48.086;-1.652;2022-09-27T06:39:39;11.80;;;2.60;;
22230;SDS011;11284;48.086;-1.652;2022-09-27T06:42:05;13.07;;;2.15;;
22230;SDS011;11284;48.086;-1.652;2022-09-27T06:44:32;13.43;;;3.20;;
22230;SDS011;11284;48.086;-1.652;2022-09-27T06:46:58;11.57;;;2.25;;
22230;SDS011;11284;48.086;-1.652;2022-09-27T06:49:24;7.65;;;2.22;;
22230;SDS011;11284;48.086;-1.652;2022-09-27T06:51:51;11.00;;;2.40;;
22230;SDS011;11284;48.086;-1.652;2022-09-27T06:54:18;10.30;;;2.15;;
22230;SDS011;11284;48.086;-1.652;2022-09-27T06:56:48;9.23;;;2.08;;
22230;SDS011;11284;48.086;-1.652;2022-09-27T06:59:14;11.20;;;2.33;;
22230;SDS011;11284;48.086;-1.652;2022-09-27T07:01:58;12.15;;;2.38;;
22230;SDS011;11284;48.086;-1.652;2022-09-27T07:04:24;9.98;;;2.50;;
22230;SDS011;11284;48.086;-1.652;2022-09-27T07:06:51;11.73;;;2.40;;
22230;SDS011;11284;48.086;-1.652;2022-09-27T07:09:17;11.90;;;2.30;;
22230;SDS011;11284;48.086;-1.652;2022-09-27T07:11:43;13.95;;;2.85;;
22230;SDS011;11284;48.086;-1.652;2022-09-27T07:14:10;9.88;;;1.80;;
22230;SDS011;11284;48.086;-1.652;2022-09-27T07:16:36;10.73;;;2.40;;
22230;SDS011;11284;48.086;-1.652;2022-09-27T07:19:02;12.52;;;2.72;;
22230;SDS011;11284;48.086;-1.652;2022-09-27T07:21:31;14.27;;;2.25;;
22230;SDS011;11284;48.086;-1.652;2022-09-27T07:23:57;14.48;;;2.60;;
22230;SDS011;11284;48.086;-1.652;2022-09-27T07:26:23;10.30;;;2.38;;
22230;SDS011;11284;48.086;-1.652;2022-09-27T07:28:49;14.20;;;2.67;;
22230;SDS011;11284;48.086;-1.652;2022-09-27T07:31:17;16.45;;;2.55;;
22230;SDS011;11284;48.086;-1.652;2022-09-27T07:33:43;14.73;;;2.28;;
22230;SDS011;11284;48.086;-1.652;2022-09-27T07:36:09;9.02;;;2.20;;
22230;SDS011;11284;48.086;-1.652;2022-09-27T07:38:35;15.30;;;2.60;;
22230;SDS011;11284;48.086;-1.652;2022-09-27T07:41:05;10.00;;;2.10;;
22230;SDS011;11284;48.086;-1.652;2022-09-27T07:43:31;9.85;;;2.30;;
22230;SDS011;11284;48.086;-1.652;2022-09-27T07:45:57;11.02;;;2.42;;
22230;SDS011;11284;48.086;-1.652;2022-09-27T07:48:23;15.90;;;2.60;;
22230;SDS011;11284;48.086;-1.652;2022-09-27T07:50:51;14.00;;;2.47;;
22230;SDS011;11284;48.086;-1.652;2022-09-27T07:53:17;11.90;;;2.38;;
22230;SDS011;11284;48.086;-1.652;2022-09-27T07:55:43;13.32;;;2.83;;
22230;SDS011;11284;48.086;-1.652;2022-09-27T07:58:09;14.50;;;2.83;;
22230;SDS011;11284;48.086;-1.652;2022-09-27T08:00:36;12.23;;;2.47;;
22230;SDS011;11284;48.086;-1.652;2022-09-27T08:03:06;10.00;;;2.00;;
22230;SDS011;11284;48.086;-1.652;2022-09-27T08:05:34;10.60;;;2.58;;
22230;SDS011;11284;48.086;-1.652;2022-09-27T08:08:00;16.63;;;2.88;;
22230;SDS011;11284;48.086;-1.652;2022-09-27T08:10:27;11.43;;;2.80;;
22230;SDS011;11284;48.086;-1.652;2022-09-27T08:12:55;14.05;;;2.63;;
22230;SDS011;11284;48.086;-1.652;2022-09-27T08:15:21;13.50;;;2.50;;
22230;SDS011;11284;48.086;-1.652;2022-09-27T08:17:48;11.13;;;2.25;;
22230;SDS011;11284;48.086;-1.652;2022-09-27T08:20:14;13.75;;;2.95;;
22230;SDS011;11284;48.086;-1.652;2022-09-27T08:22:43;16.00;;;2.50;;
22230;SDS011;11284;48.086;-1.652;2022-09-27T08:25:10;18.95;;;2.45;;
22230;SDS011;11284;48.086;-1.652;2022-09-27T08:27:36;14.60;;;2.78;;
22230;SDS011;11284;48.086;-1.652;2022-09-27T08:30:02;11.88;;;2.97;;
22230;SDS011;11284;48.086;-1.652;2022-09-27T08:32:29;13.90;;;2.95;;
22230;SDS011;11284;48.086;-1.652;2022-09-27T08:34:55;17.48;;;2.83;;
22230;SDS011;11284;48.086;-1.652;2022-09-27T08:37:21;14.68;;;2.97;;
22230;SDS011;11284;48.086;-1.652;2022-09-27T08:39:47;15.18;;;2.83;;
22230;SDS011;11284;48.086;-1.652;2022-09-27T08:42:20;15.50;;;3.03;;
22230;SDS011;11284;48.086;-1.652;2022-09-27T08:47:48;16.02;;;3.50;;
22230;SDS011;11284;48.086;-1.652;2022-09-27T08:52:43;14.13;;;3.17;;
22230;SDS011;11284;48.086;-1.652;2022-09-27T08:55:21;17.15;;;3.50;;
22230;SDS011;11284;48.086;-1.652;2022-09-27T08:57:49;16.08;;;3.58;;
22230;SDS011;11284;48.086;-1.652;2022-09-27T09:00:17;16.75;;;3.35;;
22230;SDS011;11284;48.086;-1.652;2022-09-27T09:02:43;18.88;;;3.47;;
22230;SDS011;11284;48.086;-1.652;2022-09-27T09:05:10;14.38;;;3.00;;
22230;SDS011;11284;48.086;-1.652;2022-09-27T09:13:10;14.93;;;3.08;;
22230;SDS011;11284;48.086;-1.652;2022-09-27T09:15:47;19.17;;;3.67;;
22230;SDS011;11284;48.086;-1.652;2022-09-27T09:21:21;16.75;;;3.60;;
22230;SDS011;11284;48.086;-1.652;2022-09-27T09:29:19;16.27;;;2.95;;
22230;SDS011;11284;48.086;-1.652;2022-09-27T09:31:52;19.65;;;3.80;;
22230;SDS011;11284;48.086;-1.652;2022-09-27T09:34:22;16.33;;;3.50;;
22230;SDS011;11284;48.086;-1.652;2022-09-27T09:36:58;16.77;;;2.97;;
22230;SDS011;11284;48.086;-1.652;2022-09-27T09:39:38;20.70;;;3.42;;
22230;SDS011;11284;48.086;-1.652;2022-09-27T09:45:37;17.48;;;3.42;;
22230;SDS011;11284;48.086;-1.652;2022-09-27T09:50:48;17.20;;;3.53;;
22230;SDS011;11284;48.086;-1.652;2022-09-27T09:53:26;15.63;;;3.20;;
22230;SDS011;11284;48.086;-1.652;2022-09-27T09:55:55;18.42;;;3.70;;
22230;SDS011;11284;48.086;-1.652;2022-09-27T09:58:26;19.60;;;3.90;;
22230;SDS011;11284;48.086;-1.652;2022-09-27T10:00:53;18.52;;;3.40;;
22230;SDS011;11284;48.086;-1.652;2022-09-27T10:03:21;16.35;;;3.35;;
22230;SDS011;11284;48.086;-1.652;2022-09-27T10:05:48;16.65;;;3.92;;
22230;SDS011;11284;48.086;-1.652;2022-09-27T10:08:16;19.67;;;3.47;;
22230;SDS011;11284;48.086;-1.652;2022-09-27T10:10:43;16.98;;;3.65;;
22230;SDS011;11284;48.086;-1.652;2022-09-27T10:13:11;17.58;;;3.33;;
22230;SDS011;11284;48.086;-1.652;2022-09-27T10:15:40;18.60;;;3.72;;
22230;SDS011;11284;48.086;-1.652;2022-09-27T10:18:07;15.18;;;3.47;;
22230;SDS011;11284;48.086;-1.652;2022-09-27T10:20:41;16.45;;;3.80;;
22230;SDS011;11284;48.086;-1.652;2022-09-27T10:23:15;15.13;;;3.60;;
22230;SDS011;11284;48.086;-1.652;2022-09-27T10:25:49;21.63;;;4.97;;
22230;SDS011;11284;48.086;-1.652;2022-09-27T10:30:55;15.55;;;3.60;;
22230;SDS011;11284;48.086;-1.652;2022-09-27T10:33:21;15.02;;;3.70;;
22230;SDS011;11284;48.086;-1.652;2022-09-27T10:35:48;15.25;;;3.78;;
22230;SDS011;11284;48.086;-1.652;2022-09-27T10:40:47;18.65;;;4.10;;
22230;SDS011;11284;48.086;-1.652;2022-09-27T10:43:27;18.60;;;4.13;;
22230;SDS011;11284;48.086;-1.652;2022-09-27T10:48:29;21.35;;;4.43;;
22230;SDS011;11284;48.086;-1.652;2022-09-27T10:50:56;18.35;;;3.72;;
22230;SDS011;11284;48.086;-1.652;2022-09-27T10:53:23;16.80;;;3.88;;
22230;SDS011;11284;48.086;-1.652;2022-09-27T10:55:50;17.08;;;3.65;;
22230;SDS011;11284;48.086;-1.652;2022-09-27T10:58:17;17.58;;;3.92;;
22230;SDS011;11284;48.086;-1.652;2022-09-27T11:00:44;19.25;;;4.00;;
22230;SDS011;11284;48.086;-1.652;2022-09-27T11:03:18;17.85;;;4.55;;
22230;SDS011;11284;48.086;-1.652;2022-09-27T11:05:45;21.75;;;4.60;;
22230;SDS011;11284;48.086;-1.652;2022-09-27T11:10:42;14.20;;;3.75;;
22230;SDS011;11284;48.086;-1.652;2022-09-27T11:18:11;20.10;;;3.67;;
22230;SDS011;11284;48.086;-1.652;2022-09-27T11:20:47;17.25;;;4.55;;
22230;SDS011;11284;48.086;-1.652;2022-09-27T11:23:29;20.23;;;4.35;;
22230;SDS011;11284;48.086;-1.652;2022-09-27T11:36:26;23.38;;;4.35;;
22230;SDS011;11284;48.086;-1.652;2022-09-27T11:52:34;20.05;;;3.78;;
22230;SDS011;11284;48.086;-1.652;2022-09-27T12:07:15;22.88;;;4.25;;
22230;SDS011;11284;48.086;-1.652;2022-09-27T12:09:48;19.33;;;3.95;;
22230;SDS011;11284;48.086;-1.652;2022-09-27T12:12:17;23.83;;;4.82;;
22230;SDS011;11284;48.086;-1.652;2022-09-27T12:14:44;18.23;;;4.07;;
22230;SDS011;11284;48.086;-1.652;2022-09-27T12:17:16;17.95;;;4.32;;
22230;SDS011;11284;48.086;-1.652;2022-09-27T12:19:45;18.88;;;4.50;;
22230;SDS011;11284;48.086;-1.652;2022-09-27T12:22:14;19.88;;;4.63;;
22230;SDS011;11284;48.086;-1.652;2022-09-27T12:24:41;17.58;;;5.85;;
22230;SDS011;11284;48.086;-1.652;2022-09-27T12:27:13;20.15;;;4.10;;
22230;SDS011;11284;48.086;-1.652;2022-09-27T12:29:40;26.02;;;4.50;;
22230;SDS011;11284;48.086;-1.652;2022-09-27T12:34:38;21.95;;;6.25;;
22230;SDS011;11284;48.086;-1.652;2022-09-27T12:42:19;21.08;;;5.47;;
22230;SDS011;11284;48.086;-1.652;2022-09-27T12:44:46;30.88;;;11.07;;
22230;SDS011;11284;48.086;-1.652;2022-09-27T12:52:11;24.90;;;7.13;;
22230;SDS011;11284;48.086;-1.652;2022-09-27T12:57:13;22.52;;;4.63;;
22230;SDS011;11284;48.086;-1.652;2022-09-27T13:02:28;21.20;;;4.30;;
22230;SDS011;11284;48.086;-1.652;2022-09-27T13:12:46;17.25;;;4.88;;
22230;SDS011;11284;48.086;-1.652;2022-09-27T13:15:15;21.23;;;6.18;;
22230;SDS011;11284;48.086;-1.652;2022-09-27T13:22:54;13.45;;;3.63;;
22230;SDS011;11284;48.086;-1.652;2022-09-27T13:31:07;20.52;;;3.70;;
22230;SDS011;11284;48.086;-1.652;2022-09-27T13:33:46;14.93;;;3.53;;
22230;SDS011;11284;48.086;-1.652;2022-09-27T13:41:26;12.70;;;3.53;;
22230;SDS011;11284;48.086;-1.652;2022-09-27T13:46:31;13.75;;;3.42;;
22230;SDS011;11284;48.086;-1.652;2022-09-27T13:49:01;15.73;;;3.75;;
22230;SDS011;11284;48.086;-1.652;2022-09-27T13:56:57;17.67;;;3.40;;
22230;SDS011;11284;48.086;-1.652;2022-09-27T14:02:02;18.40;;;3.38;;
22230;SDS011;11284;48.086;-1.652;2022-09-27T14:04:40;14.13;;;3.20;;
22230;SDS011;11284;48.086;-1.652;2022-09-27T14:07:06;25.38;;;14.40;;
22230;SDS011;11284;48.086;-1.652;2022-09-27T14:09:39;13.20;;;4.20;;
22230;SDS011;11284;48.086;-1.652;2022-09-27T14:12:10;16.95;;;3.25;;
22230;SDS011;11284;48.086;-1.652;2022-09-27T14:14:36;18.52;;;4.18;;
22230;SDS011;11284;48.086;-1.652;2022-09-27T14:17:05;13.85;;;3.03;;
22230;SDS011;11284;48.086;-1.652;2022-09-27T14:19:31;14.77;;;3.25;;
22230;SDS011;11284;48.086;-1.652;2022-09-27T14:21:58;15.32;;;3.60;;
22230;SDS011;11284;48.086;-1.652;2022-09-27T14:27:02;17.33;;;3.00;;
22230;SDS011;11284;48.086;-1.652;2022-09-27T14:29:29;6.93;;;2.10;;
22230;SDS011;11284;48.086;-1.652;2022-09-27T14:32:02;14.10;;;2.80;;
22230;SDS011;11284;48.086;-1.652;2022-09-27T14:36:55;10.15;;;2.42;;
22230;SDS011;11284;48.086;-1.652;2022-09-27T14:39:39;13.82;;;4.70;;
22230;SDS011;11284;48.086;-1.652;2022-09-27T14:42:15;13.75;;;3.80;;
22230;SDS011;11284;48.086;-1.652;2022-09-27T14:44:44;8.70;;;2.08;;
22230;SDS011;11284;48.086;-1.652;2022-09-27T14:49:46;12.75;;;2.00;;
22230;SDS011;11284;48.086;-1.652;2022-09-27T14:55:18;7.97;;;1.90;;
22230;SDS011;11284;48.086;-1.652;2022-09-27T14:57:46;9.10;;;2.03;;
22230;SDS011;11284;48.086;-1.652;2022-09-27T15:00:20;9.25;;;1.90;;
22230;SDS011;11284;48.086;-1.652;2022-09-27T15:02:48;10.48;;;2.35;;
22230;SDS011;11284;48.086;-1.652;2022-09-27T15:05:19;10.82;;;2.03;;
22230;SDS011;11284;48.086;-1.652;2022-09-27T15:07:45;11.70;;;2.55;;
22230;SDS011;11284;48.086;-1.652;2022-09-27T15:10:13;12.27;;;2.22;;
22230;SDS011;11284;48.086;-1.652;2022-09-27T15:12:41;10.43;;;2.10;;
22230;SDS011;11284;48.086;-1.652;2022-09-27T15:15:10;9.88;;;2.78;;
22230;SDS011;11284;48.086;-1.652;2022-09-27T15:17:41;9.05;;;2.15;;
22230;SDS011;11284;48.086;-1.652;2022-09-27T15:20:24;10.30;;;2.25;;
22230;SDS011;11284;48.086;-1.652;2022-09-27T15:22:55;10.30;;;2.95;;
22230;SDS011;11284;48.086;-1.652;2022-09-27T15:27:51;11.55;;;2.40;;
22230;SDS011;11284;48.086;-1.652;2022-09-27T15:30:19;11.68;;;3.15;;
22230;SDS011;11284;48.086;-1.652;2022-09-27T15:32:49;14.15;;;3.90;;
22230;SDS011;11284;48.086;-1.652;2022-09-27T15:35:17;14.43;;;3.47;;
22230;SDS011;11284;48.086;-1.652;2022-09-27T15:37:44;15.60;;;4.30;;
22230;SDS011;11284;48.086;-1.652;2022-09-27T15:42:59;11.65;;;3.20;;
22230;SDS011;11284;48.086;-1.652;2022-09-27T15:45:33;15.15;;;2.78;;
22230;SDS011;11284;48.086;-1.652;2022-09-27T15:48:12;9.13;;;2.30;;
22230;SDS011;11284;48.086;-1.652;2022-09-27T15:50:38;11.93;;;2.40;;
22230;SDS011;11284;48.086;-1.652;2022-09-27T15:53:05;11.75;;;2.72;;
22230;SDS011;11284;48.086;-1.652;2022-09-27T15:55:33;14.75;;;3.20;;
22230;SDS011;11284;48.086;-1.652;2022-09-27T15:58:02;10.30;;;2.15;;
22230;SDS011;11284;48.086;-1.652;2022-09-27T16:00:29;10.23;;;2.15;;
22230;SDS011;11284;48.086;-1.652;2022-09-27T16:02:55;11.68;;;3.00;;
22230;SDS011;11284;48.086;-1.652;2022-09-27T16:05:21;8.52;;;1.98;;
22230;SDS011;11284;48.086;-1.652;2022-09-27T16:07:54;11.73;;;2.53;;
22230;SDS011;11284;48.086;-1.652;2022-09-27T16:10:26;9.82;;;2.35;;
22230;SDS011;11284;48.086;-1.652;2022-09-27T16:12:54;8.50;;;2.35;;
22230;SDS011;11284;48.086;-1.652;2022-09-27T16:15:20;7.95;;;2.10;;
22230;SDS011;11284;48.086;-1.652;2022-09-27T16:17:46;13.50;;;5.03;;
22230;SDS011;11284;48.086;-1.652;2022-09-27T16:20:16;9.80;;;2.30;;
22230;SDS011;11284;48.086;-1.652;2022-09-27T16:22:43;6.85;;;1.88;;
22230;SDS011;11284;48.086;-1.652;2022-09-27T16:25:09;9.20;;;1.92;;
22230;SDS011;11284;48.086;-1.652;2022-09-27T16:27:36;6.72;;;1.48;;
22230;SDS011;11284;48.086;-1.652;2022-09-27T16:30:02;7.40;;;1.70;;
22230;SDS011;11284;48.086;-1.652;2022-09-27T16:32:28;6.40;;;1.80;;
22230;SDS011;11284;48.086;-1.652;2022-09-27T16:34:55;6.70;;;1.65;;
22230;SDS011;11284;48.086;-1.652;2022-09-27T16:37:21;7.78;;;1.73;;
22230;SDS011;11284;48.086;-1.652;2022-09-27T16:39:47;5.38;;;1.40;;
22230;SDS011;11284;48.086;-1.652;2022-09-27T16:42:13;5.15;;;1.17;;
22230;SDS011;11284;48.086;-1.652;2022-09-27T16:44:40;5.00;;;1.27;;
22230;SDS011;11284;48.086;-1.652;2022-09-27T16:47:06;6.72;;;1.30;;
22230;SDS011;11284;48.086;-1.652;2022-09-27T16:49:32;7.15;;;1.63;;
22230;SDS011;11284;48.086;-1.652;2022-09-27T16:52:17;4.07;;;1.30;;
22230;SDS011;11284;48.086;-1.652;2022-09-27T16:54:43;5.68;;;1.35;;
22230;SDS011;11284;48.086;-1.652;2022-09-27T16:57:08;5.43;;;1.50;;
22230;SDS011;11284;48.086;-1.652;2022-09-27T16:59:35;7.38;;;1.85;;
22230;SDS011;11284;48.086;-1.652;2022-09-27T17:02:01;36.05;;;26.05;;
22230;SDS011;11284;48.086;-1.652;2022-09-27T17:04:28;5.53;;;1.70;;
22230;SDS011;11284;48.086;-1.652;2022-09-27T17:06:55;8.55;;;3.30;;
22230;SDS011;11284;48.086;-1.652;2022-09-27T17:09:21;7.80;;;2.38;;
22230;SDS011;11284;48.086;-1.652;2022-09-27T17:11:47;5.65;;;1.42;;
22230;SDS011;11284;48.086;-1.652;2022-09-27T17:14:14;6.85;;;2.38;;
22230;SDS011;11284;48.086;-1.652;2022-09-27T17:16:41;4.72;;;1.80;;
22230;SDS011;11284;48.086;-1.652;2022-09-27T17:19:07;6.32;;;1.65;;
22230;SDS011;11284;48.086;-1.652;2022-09-27T17:21:37;8.80;;;1.58;;
22230;SDS011;11284;48.086;-1.652;2022-09-27T17:24:03;6.50;;;2.08;;
22230;SDS011;11284;48.086;-1.652;2022-09-27T17:26:29;4.20;;;1.50;;
22230;SDS011;11284;48.086;-1.652;2022-09-27T17:28:56;7.15;;;1.73;;
22230;SDS011;11284;48.086;-1.652;2022-09-27T17:31:22;4.78;;;1.30;;
22230;SDS011;11284;48.086;-1.652;2022-09-27T17:33:50;4.43;;;1.38;;
22230;SDS011;11284;48.086;-1.652;2022-09-27T17:36:17;4.55;;;1.27;;